Time;durP1;ratioP1;P1;durP2;ratioP2;P2;SDS_P1;SDS_P2;PMS_P1;PMS_P2;Temp;Humidity;BMP_temperature;BMP_pressure;BME280_temperature;BME280_humidity;BME280_pressure;Samples;Min_cycle;Max_cycle;Signal;HPM_P1;HPM_P2
2022/06/30 00:01:34;;;;;;;53.17;50.07;;;18.50;99.90;;;;;;5013737;28;20184;-77
2022/06/30 00:04:00;;;;;;;48.60;45.67;;;18.50;99.90;;;;;;5012465;28;20222;-77
2022/06/30 00:06:27;;;;;;;42.13;39.80;;;18.40;99.90;;;;;;5012905;28;20183;-77
2022/06/30 00:08:52;;;;;;;39.77;37.30;;;18.40;99.90;;;;;;5012051;28;20227;-76
2022/06/30 00:11:19;;;;;;;33.03;31.17;;;18.40;99.90;;;;;;5013740;28;20214;-77
2022/06/30 00:13:45;;;;;;;36.90;34.63;;;18.40;99.90;;;;;;5012563;28;20404;-77
2022/06/30 00:16:12;;;;;;;38.00;35.60;;;18.40;99.90;;;;;;5014114;28;20217;-77
2022/06/30 00:18:38;;;;;;;38.83;36.40;;;18.40;99.90;;;;;;5011832;28;20258;-77
2022/06/30 00:21:04;;;;;;;35.77;33.57;;;18.30;99.90;;;;;;5013489;28;20274;-77
2022/06/30 00:23:30;;;;;;;30.50;28.37;;;18.30;99.90;;;;;;5012031;28;20200;-77
2022/06/30 00:25:56;;;;;;;27.53;26.03;;;18.30;99.90;;;;;;5013293;28;20266;-76
2022/06/30 00:28:22;;;;;;;28.40;26.70;;;18.20;99.90;;;;;;5014835;28;20247;-76
2022/06/30 00:30:50;;;;;;;30.90;28.90;;;18.20;99.90;;;;;;5011860;28;20732;-77
2022/06/30 00:33:17;;;;;;;32.17;30.27;;;18.30;99.90;;;;;;5013132;28;20203;-77
2022/06/30 00:35:43;;;;;;;32.93;29.80;;;18.30;99.90;;;;;;5013038;28;20210;-77
2022/06/30 00:38:09;;;;;;;29.83;27.63;;;18.30;99.90;;;;;;5010936;28;20644;-77
2022/06/30 00:40:36;;;;;;;37.07;34.63;;;18.40;99.90;;;;;;5013016;28;20218;-77
2022/06/30 00:43:02;;;;;;;37.63;35.43;;;18.40;99.90;;;;;;5028143;28;20242;-76
2022/06/30 00:45:28;;;;;;;36.60;34.03;;;18.30;99.90;;;;;;5012876;28;20188;-77
2022/06/30 00:47:55;;;;;;;37.37;34.97;;;18.30;99.90;;;;;;5012070;28;20195;-77
2022/06/30 00:50:21;;;;;;;40.47;37.33;;;18.30;99.90;;;;;;5012775;28;20273;-77
2022/06/30 00:52:50;;;;;;;33.30;31.30;;;18.30;99.90;;;;;;5012483;28;20203;-77
2022/06/30 00:55:17;;;;;;;32.47;30.57;;;18.30;99.90;;;;;;5011416;28;20218;-76
2022/06/30 00:57:44;;;;;;;34.87;32.57;;;18.20;99.90;;;;;;5026991;28;20180;-77
2022/06/30 01:00:11;;;;;;;37.90;35.40;;;18.20;99.90;;;;;;5012646;28;20183;-77
2022/06/30 01:02:37;;;;;;;40.53;37.83;;;18.20;99.90;;;;;;5011081;28;20203;-77
2022/06/30 01:05:04;;;;;;;33.90;31.60;;;18.20;99.90;;;;;;5011505;28;20314;-77
2022/06/30 01:07:30;;;;;;;37.60;35.20;;;18.10;99.90;;;;;;5011033;28;20656;-77
2022/06/30 01:12:49;;;;;;;46.07;43.17;;;18.10;99.90;;;;;;5012556;28;20207;-76
2022/06/30 01:15:18;;;;;;;42.97;40.50;;;18.00;99.90;;;;;;5012859;28;20183;-76
2022/06/30 01:17:45;;;;;;;39.97;36.90;;;17.90;99.90;;;;;;5011623;28;20194;-76
2022/06/30 01:20:13;;;;;;;30.77;28.37;;;17.90;99.90;;;;;;5012652;28;20184;-76
2022/06/30 01:22:39;;;;;;;41.60;38.60;;;17.90;99.90;;;;;;5011006;28;20618;-76
2022/06/30 01:25:07;;;;;;;33.43;31.27;;;17.90;99.90;;;;;;5012266;28;20179;-76
2022/06/30 01:27:33;;;;;;;37.37;34.80;;;17.90;99.90;;;;;;5010092;28;20195;-76
2022/06/30 01:29:58;;;;;;;31.77;29.67;;;17.70;99.90;;;;;;5010695;28;20266;-76
2022/06/30 01:32:25;;;;;;;26.67;25.07;;;17.60;99.90;;;;;;5011835;28;20298;-76
2022/06/30 01:34:52;;;;;;;25.87;24.00;;;17.50;99.90;;;;;;5012081;28;20196;-76
2022/06/30 01:37:18;;;;;;;24.73;22.57;;;17.40;99.90;;;;;;5009981;28;20231;-76
2022/06/30 01:39:44;;;;;;;25.10;22.90;;;17.40;99.90;;;;;;5011845;28;20237;-76
2022/06/30 01:42:10;;;;;;;44.63;41.20;;;17.30;99.90;;;;;;5011070;28;20715;-76
2022/06/30 01:44:37;;;;;;;57.13;53.73;;;17.30;99.90;;;;;;5011754;28;20286;-76
2022/06/30 01:47:03;;;;;;;61.93;58.33;;;17.30;99.90;;;;;;5009837;28;20226;-76
2022/06/30 01:49:28;;;;;;;89.77;84.67;;;17.40;99.90;;;;;;5011711;28;20187;-76
2022/06/30 01:51:54;;;;;;;48.73;45.83;;;17.40;99.90;;;;;;5011828;28;20184;-76
2022/06/30 01:54:20;;;;;;;40.57;38.03;;;17.40;99.90;;;;;;5010525;28;20758;-77
2022/06/30 01:56:46;;;;;;;61.90;57.87;;;17.40;99.90;;;;;;5010870;28;20241;-77
2022/06/30 01:59:12;;;;;;;79.40;74.77;;;17.40;99.90;;;;;;5011569;28;20191;-77
2022/06/30 02:01:37;;;;;;;64.63;60.47;;;17.40;99.90;;;;;;5012183;28;20172;-77
2022/06/30 02:06:48;;;;;;;56.70;53.23;;;17.30;99.90;;;;;;5010936;28;20187;-78
2022/06/30 02:09:14;;;;;;;85.13;80.43;;;17.30;99.90;;;;;;5011400;28;20186;-77
2022/06/30 02:11:40;;;;;;;93.03;87.87;;;17.30;99.90;;;;;;5010246;28;20188;-77
2022/06/30 02:14:06;;;;;;;81.60;77.20;;;17.20;99.90;;;;;;5011340;28;20221;-77
2022/06/30 02:16:32;;;;;;;91.43;86.33;;;17.20;99.90;;;;;;5011148;28;20261;-77
2022/06/30 02:18:58;;;;;;;107.50;101.50;;;17.10;99.90;;;;;;5015014;28;20172;-77
2022/06/30 02:21:23;;;;;;;88.03;83.20;;;17.10;99.90;;;;;;5013900;28;20183;-77
2022/06/30 02:23:51;;;;;;;44.33;41.63;;;17.10;99.90;;;;;;5013176;28;20195;-77
2022/06/30 02:26:18;;;;;;;45.87;42.77;;;17.10;99.90;;;;;;5013968;28;20233;-77
2022/06/30 02:28:44;;;;;;;47.93;44.20;;;17.10;99.90;;;;;;5010362;28;20183;-77
2022/06/30 02:31:12;;;;;;;31.77;29.57;;;17.10;99.90;;;;;;5010217;28;20679;-77
2022/06/30 02:33:41;;;;;;;58.43;54.90;;;17.10;99.90;;;;;;5012307;28;20210;-77
2022/06/30 02:36:07;;;;;;;86.43;81.53;;;17.10;99.90;;;;;;5012747;28;20672;-78
2022/06/30 02:38:34;;;;;;;66.53;62.53;;;17.10;99.90;;;;;;5014212;28;20180;-77
2022/06/30 02:41:00;;;;;;;77.77;73.43;;;17.00;99.90;;;;;;5011767;28;20180;-77
2022/06/30 02:43:26;;;;;;;68.93;64.80;;;17.00;99.90;;;;;;5011578;28;20322;-77
2022/06/30 02:45:52;;;;;;;54.27;50.93;;;17.00;99.90;;;;;;5011279;28;20266;-77
2022/06/30 02:48:18;;;;;;;66.00;62.07;;;16.90;99.90;;;;;;5009322;28;20204;-77
2022/06/30 02:50:45;;;;;;;75.33;70.57;;;16.90;99.90;;;;;;5011037;28;20702;-77
2022/06/30 02:53:11;;;;;;;62.77;58.93;;;16.90;99.90;;;;;;5009895;28;20203;-77
2022/06/30 02:55:38;;;;;;;58.50;54.93;;;16.80;99.90;;;;;;5030206;28;20211;-77
2022/06/30 02:58:03;;;;;;;60.80;57.07;;;16.80;99.90;;;;;;5013436;28;20271;-77
2022/06/30 03:00:29;;;;;;;50.57;46.80;;;16.80;99.90;;;;;;5015210;28;20266;-77
2022/06/30 03:02:57;;;;;;;62.57;58.00;;;16.80;99.90;;;;;;5015162;28;20211;-77
2022/06/30 03:05:24;;;;;;;68.63;64.70;;;16.80;99.90;;;;;;5015079;28;20700;-77
2022/06/30 03:07:50;;;;;;;48.87;45.70;;;16.80;99.90;;;;;;5013925;28;20230;-77
2022/06/30 03:10:16;;;;;;;79.13;75.00;;;16.80;99.90;;;;;;5014738;28;20188;-76
2022/06/30 03:12:42;;;;;;;78.57;74.13;;;16.70;99.90;;;;;;5014497;28;20758;-77
2022/06/30 03:15:08;;;;;;;63.77;59.93;;;16.70;99.90;;;;;;5014128;28;20175;-77
2022/06/30 03:17:34;;;;;;;42.87;40.33;;;16.70;99.90;;;;;;5013937;28;20215;-76
2022/06/30 03:20:01;;;;;;;83.33;78.53;;;16.70;99.90;;;;;;5013574;28;20179;-76
2022/06/30 03:22:26;;;;;;;67.70;63.67;;;16.80;99.90;;;;;;5014611;28;20175;-76
2022/06/30 03:24:52;;;;;;;42.20;39.67;;;16.70;99.90;;;;;;5013589;28;20176;-76
2022/06/30 03:27:18;;;;;;;79.57;75.13;;;16.60;99.90;;;;;;5013851;28;20259;-76
2022/06/30 03:29:44;;;;;;;60.13;56.50;;;16.60;99.90;;;;;;5013647;28;20190;-76
2022/06/30 03:32:10;;;;;;;74.27;69.97;;;16.50;99.90;;;;;;5014649;28;20176;-76
2022/06/30 03:34:36;;;;;;;70.00;66.23;;;16.50;99.90;;;;;;5013355;28;20289;-76
2022/06/30 03:37:02;;;;;;;30.90;28.87;;;16.50;99.90;;;;;;5015042;28;20283;-76
2022/06/30 03:39:28;;;;;;;28.43;26.60;;;16.60;99.90;;;;;;5014093;28;20641;-76
2022/06/30 03:41:54;;;;;;;41.33;38.57;;;16.70;99.90;;;;;;5014186;28;20274;-76
2022/06/30 03:44:19;;;;;;;68.77;64.67;;;16.70;99.90;;;;;;5014087;28;20231;-76
2022/06/30 03:46:45;;;;;;;70.40;66.30;;;16.80;99.90;;;;;;5013428;28;20295;-77
2022/06/30 03:49:11;;;;;;;67.63;63.93;;;16.80;99.90;;;;;;5014475;28;20250;-76
2022/06/30 03:51:37;;;;;;;44.83;42.23;;;16.80;99.90;;;;;;5014125;28;20187;-76
2022/06/30 03:54:03;;;;;;;32.73;30.77;;;16.80;99.90;;;;;;5012799;28;20242;-76
2022/06/30 03:56:29;;;;;;;31.13;29.13;;;16.70;99.90;;;;;;5012976;28;20231;-76
2022/06/30 03:58:55;;;;;;;53.13;50.30;;;16.60;99.90;;;;;;5013244;28;20180;-76
2022/06/30 04:01:21;;;;;;;66.47;62.30;;;16.50;99.90;;;;;;5014596;28;20200;-76
2022/06/30 04:03:47;;;;;;;47.80;44.90;;;16.60;99.90;;;;;;5015453;28;20270;-76
2022/06/30 04:06:13;;;;;;;58.13;54.50;;;16.70;99.90;;;;;;5015526;28;20241;-76
2022/06/30 04:08:39;;;;;;;62.70;58.57;;;16.70;99.90;;;;;;5015726;28;20195;-76
2022/06/30 04:11:04;;;;;;;67.80;63.90;;;16.80;99.90;;;;;;5013748;28;20183;-76
2022/06/30 04:13:30;;;;;;;54.37;51.30;;;16.90;99.90;;;;;;5014933;28;20290;-76
2022/06/30 04:15:56;;;;;;;46.70;43.90;;;16.90;99.90;;;;;;5014932;28;20262;-76
2022/06/30 04:18:22;;;;;;;38.37;35.63;;;16.90;99.90;;;;;;5012219;28;20602;-75
2022/06/30 04:20:48;;;;;;;36.77;34.43;;;17.00;99.90;;;;;;5013957;28;20175;-76
2022/06/30 04:23:14;;;;;;;22.63;20.70;;;17.10;99.90;;;;;;5013527;28;20284;-76
2022/06/30 04:25:41;;;;;;;25.23;23.60;;;17.20;99.90;;;;;;5012494;28;20206;-76
2022/06/30 04:28:06;;;;;;;27.53;25.47;;;17.30;99.90;;;;;;5012751;28;20336;-76
2022/06/30 04:33:17;;;;;;;27.27;25.20;;;17.50;99.90;;;;;;5013274;28;20680;-76
2022/06/30 04:35:42;;;;;;;25.57;23.53;;;17.60;99.90;;;;;;5012202;28;20306;-76
2022/06/30 04:38:08;;;;;;;28.43;25.70;;;17.70;99.90;;;;;;5011520;28;20187;-76
2022/06/30 04:43:19;;;;;;;53.03;49.90;;;17.90;99.90;;;;;;5013037;28;20253;-77
2022/06/30 04:45:45;;;;;;;37.33;34.93;;;18.00;99.90;;;;;;5013165;28;20648;-77
2022/06/30 04:48:11;;;;;;;30.30;28.17;;;18.00;99.90;;;;;;5010954;28;20721;-77
2022/06/30 04:50:38;;;;;;;14.00;12.60;;;18.10;99.90;;;;;;5013658;28;20562;-77
2022/06/30 04:53:04;;;;;;;18.03;16.53;;;18.20;99.90;;;;;;5012955;28;20211;-76
2022/06/30 04:55:30;;;;;;;58.47;55.00;;;18.30;99.90;;;;;;5012031;28;20189;-77
2022/06/30 04:57:55;;;;;;;139.57;132.30;;;18.40;99.90;;;;;;5012027;28;20657;-76
2022/06/30 05:00:21;;;;;;;237.07;224.83;;;18.50;99.90;;;;;;5011842;28;20175;-77
2022/06/30 05:02:47;;;;;;;167.40;158.27;;;18.60;99.90;;;;;;5026834;22;20211;-80
2022/06/30 05:05:13;;;;;;;38.07;35.93;;;18.80;99.90;;;;;;5016580;28;20203;-80
2022/06/30 05:07:39;;;;;;;36.40;34.40;;;19.00;99.90;;;;;;5019234;28;20566;-79
2022/06/30 05:10:05;;;;;;;33.13;31.10;;;19.30;99.90;;;;;;5031024;28;20619;-78
2022/06/30 05:12:31;;;;;;;13.83;13.00;;;19.60;99.90;;;;;;5032698;28;20192;-78
2022/06/30 05:14:57;;;;;;;91.88;86.90;;;20.20;99.90;;;;;;5045116;28;20190;-79
2022/06/30 05:17:22;;;;;;;55.90;52.90;;;20.80;99.90;;;;;;5045747;28;20226;-79
2022/06/30 05:19:48;;;;;;;288.13;271.73;;;21.30;99.90;;;;;;5039068;28;20200;-79
2022/06/30 05:22:14;;;;;;;214.27;202.70;;;22.00;99.90;;;;;;5039041;28;20249;-79
2022/06/30 05:27:24;;;;;;;9.90;9.07;;;23.10;99.90;;;;;;5036153;28;20208;-79
2022/06/30 05:29:50;;;;;;;9.50;8.82;;;23.60;99.90;;;;;;5036815;28;20897;-79
2022/06/30 05:32:16;;;;;;;13.95;12.95;;;24.10;99.90;;;;;;5035654;28;20193;-79
2022/06/30 05:34:41;;;;;;;14.35;13.55;;;24.40;99.90;;;;;;5034794;28;20233;-78
2022/06/30 05:37:07;;;;;;;12.55;11.63;;;24.50;99.90;;;;;;5035836;28;20219;-78
2022/06/30 05:39:33;;;;;;;26.60;25.15;;;24.60;99.90;;;;;;5034670;28;20175;-78
2022/06/30 05:42:00;;;;;;;70.10;66.18;;;24.90;99.90;;;;;;5034819;28;20179;-78
2022/06/30 05:44:27;;;;;;;136.75;129.55;;;25.40;99.90;;;;;;5035556;28;20191;-78
2022/06/30 05:46:54;;;;;;;89.60;84.68;;;25.60;99.90;;;;;;5034880;28;20187;-78
2022/06/30 05:49:23;;;;;;;102.40;96.90;;;25.60;99.90;;;;;;5033443;28;20221;-78
2022/06/30 05:51:49;;;;;;;66.35;62.75;;;25.60;99.90;;;;;;5035017;28;20214;-78
2022/06/30 05:54:15;;;;;;;80.07;75.93;;;25.90;99.90;;;;;;5033803;28;20199;-78
2022/06/30 05:56:41;;;;;;;75.70;71.82;;;25.80;99.90;;;;;;5036248;28;20211;-78
2022/06/30 05:59:07;;;;;;;22.83;21.33;;;25.90;99.90;;;;;;5043637;28;20201;-78
2022/06/30 06:01:32;;;;;;;20.17;18.73;;;26.30;99.90;;;;;;5037906;28;20236;-79
2022/06/30 06:03:58;;;;;;;17.70;16.48;;;26.80;99.90;;;;;;5033958;28;20221;-78
2022/06/30 06:06:24;;;;;;;14.52;13.35;;;27.00;99.90;;;;;;5034705;28;20183;-78
2022/06/30 06:08:50;;;;;;;10.25;9.27;;;27.30;99.90;;;;;;5034637;28;20269;-79
2022/06/30 06:11:16;;;;;;;8.20;7.45;;;27.40;99.90;;;;;;5033434;28;20186;-78
2022/06/30 06:13:41;;;;;;;7.53;6.78;;;27.50;99.90;;;;;;5037504;28;20199;-78
2022/06/30 06:16:07;;;;;;;7.70;7.10;;;27.80;99.90;;;;;;5051859;28;20326;-78
2022/06/30 06:18:33;;;;;;;7.05;6.45;;;28.20;99.90;;;;;;5031751;28;20174;-78
2022/06/30 06:20:59;;;;;;;7.22;6.60;;;28.40;99.90;;;;;;5037910;28;20198;-78
2022/06/30 06:23:25;;;;;;;19.08;17.90;;;28.80;99.90;;;;;;5040378;28;20191;-79
2022/06/30 06:25:51;;;;;;;23.92;22.45;;;29.10;99.90;;;;;;5033421;28;20189;-78
2022/06/30 06:31:02;;;;;;;17.95;16.70;;;29.20;99.90;;;;;;5036906;28;20187;-79
2022/06/30 06:33:28;;;;;;;20.20;18.77;;;29.00;99.90;;;;;;5034610;28;20615;-79
2022/06/30 06:35:54;;;;;;;24.45;22.90;;;29.20;99.90;;;;;;5032373;28;20226;-79
2022/06/30 06:38:20;;;;;;;26.05;24.65;;;29.20;99.90;;;;;;5033138;28;20182;-78
2022/06/30 06:40:46;;;;;;;28.02;26.40;;;29.70;99.90;;;;;;5042483;28;20183;-78
2022/06/30 06:43:12;;;;;;;27.35;25.85;;;29.80;99.90;;;;;;5046596;28;20318;-78
2022/06/30 06:45:37;;;;;;;34.15;31.90;;;29.80;99.90;;;;;;5043374;28;20187;-78
2022/06/30 06:48:03;;;;;;;16.38;14.88;;;30.00;99.90;;;;;;5041218;28;20225;-79
2022/06/30 06:50:29;;;;;;;14.60;13.70;;;30.40;99.90;;;;;;5034076;28;20186;-81
2022/06/30 06:52:55;;;;;;;6.95;6.25;;;30.60;99.90;;;;;;5033642;28;20223;-78
2022/06/30 06:55:22;;;;;;;6.80;6.35;;;30.60;99.90;;;;;;5032564;28;20231;-78
2022/06/30 06:57:48;;;;;;;6.60;5.95;;;30.50;99.90;;;;;;5033306;28;20241;-78
2022/06/30 07:00:14;;;;;;;9.88;6.40;;;30.50;99.90;;;;;;5033719;28;20274;-79
2022/06/30 07:02:41;;;;;;;8.05;6.43;;;30.70;99.90;;;;;;5034261;28;20218;-79
2022/06/30 07:05:07;;;;;;;7.93;6.40;;;30.90;99.90;;;;;;5034566;28;20206;-79
2022/06/30 07:07:35;;;;;;;8.13;7.35;;;30.80;99.90;;;;;;5032861;28;20183;-79
2022/06/30 07:10:00;;;;;;;8.98;7.25;;;30.60;99.90;;;;;;5032913;28;20646;-79
2022/06/30 07:12:26;;;;;;;8.07;7.35;;;31.00;99.90;;;;;;5038088;28;20191;-78
2022/06/30 07:14:52;;;;;;;6.38;5.78;;;31.30;99.90;;;;;;5036067;28;20199;-79
2022/06/30 07:17:19;;;;;;;7.78;6.78;;;31.50;99.50;;;;;;5032926;28;20215;-79
2022/06/30 07:19:45;;;;;;;6.82;5.90;;;31.60;98.90;;;;;;5033032;28;20195;-80
2022/06/30 07:22:11;;;;;;;7.55;6.25;;;31.10;97.90;;;;;;5034213;28;20254;-79
2022/06/30 07:24:37;;;;;;;8.80;7.63;;;30.90;98.90;;;;;;5034909;28;20294;-78
2022/06/30 07:27:03;;;;;;;9.05;6.70;;;30.90;98.80;;;;;;5040373;28;20245;-78
2022/06/30 07:29:30;;;;;;;8.75;5.65;;;31.30;98.20;;;;;;5035583;28;20187;-79
2022/06/30 07:31:56;;;;;;;5.78;5.40;;;31.70;97.50;;;;;;5032343;28;20190;-79
2022/06/30 07:34:22;;;;;;;6.47;5.75;;;32.10;96.90;;;;;;5032505;28;20199;-79
2022/06/30 07:36:48;;;;;;;9.65;5.03;;;32.50;95.60;;;;;;5032901;28;20686;-79
2022/06/30 07:39:15;;;;;;;5.97;5.47;;;32.10;96.00;;;;;;5033544;28;20194;-79
2022/06/30 07:41:40;;;;;;;8.15;7.55;;;32.30;95.50;;;;;;5035989;28;20205;-79
2022/06/30 07:44:06;;;;;;;25.38;23.90;;;32.60;94.60;;;;;;5035928;28;20691;-79
2022/06/30 07:46:32;;;;;;;22.05;20.80;;;32.60;93.50;;;;;;5035957;28;20186;-79
2022/06/30 07:48:58;;;;;;;18.45;17.30;;;32.30;94.00;;;;;;5035027;28;20187;-79
2022/06/30 07:51:24;;;;;;;20.27;19.08;;;32.40;94.10;;;;;;5035828;28;20233;-79
2022/06/30 07:53:50;;;;;;;20.27;19.05;;;32.30;94.20;;;;;;5048042;28;20206;-79
2022/06/30 07:56:16;;;;;;;23.10;21.55;;;32.40;94.00;;;;;;5047053;28;20254;-78
2022/06/30 07:58:43;;;;;;;16.90;15.88;;;32.70;93.10;;;;;;5039864;28;20190;-78
2022/06/30 08:01:08;;;;;;;18.40;17.20;;;32.50;92.40;;;;;;5041198;28;20185;-79
2022/06/30 08:03:34;;;;;;;21.98;20.40;;;32.10;92.30;;;;;;5034289;28;20218;-78
2022/06/30 08:06:00;;;;;;;21.85;20.65;;;31.90;92.80;;;;;;5035621;28;20182;-79
2022/06/30 08:08:26;;;;;;;28.92;26.98;;;31.80;92.60;;;;;;5039048;28;20183;-78
2022/06/30 08:10:53;;;;;;;17.15;16.13;;;31.60;92.90;;;;;;5043176;28;20214;-78
2022/06/30 08:13:19;;;;;;;18.52;17.23;;;31.40;92.90;;;;;;5039182;28;20203;-78
2022/06/30 08:15:45;;;;;;;17.23;15.88;;;31.70;92.60;;;;;;5038847;28;20182;-79
2022/06/30 08:18:11;;;;;;;13.98;13.15;;;32.00;92.30;;;;;;5034922;28;20175;-79
2022/06/30 08:20:37;;;;;;;19.80;18.58;;;32.10;93.20;;;;;;5035659;28;20262;-79
2022/06/30 08:23:02;;;;;;;25.00;23.52;;;32.50;91.20;;;;;;5034897;28;20207;-79
2022/06/30 08:25:28;;;;;;;23.75;22.45;;;31.80;92.00;;;;;;5036466;28;20470;-79
2022/06/30 08:27:54;;;;;;;26.92;25.52;;;31.70;92.20;;;;;;5033828;28;20187;-79
2022/06/30 08:30:20;;;;;;;17.13;16.05;;;31.70;91.80;;;;;;5035748;28;20179;-79
2022/06/30 08:32:46;;;;;;;21.48;19.95;;;31.70;91.80;;;;;;5036191;28;20186;-78
2022/06/30 08:35:13;;;;;;;16.20;15.27;;;31.70;91.00;;;;;;5044007;28;20261;-78
2022/06/30 08:37:39;;;;;;;18.40;17.05;;;31.60;91.30;;;;;;5036579;28;20320;-78
2022/06/30 08:42:50;;;;;;;24.38;23.10;;;32.10;90.20;;;;;;5035811;28;20211;-80
2022/06/30 08:45:20;;;;;;;18.85;17.55;;;32.50;87.00;;;;;;5036359;28;20198;-79
2022/06/30 08:47:48;;;;;;;16.50;15.25;;;32.80;87.00;;;;;;5036110;28;20183;-79
2022/06/30 08:50:16;;;;;;;13.45;12.75;;;32.70;87.40;;;;;;5036827;28;20174;-79
2022/06/30 08:52:56;;;;;;;15.55;14.27;;;32.60;85.40;;;;;;5035757;28;20187;-79
2022/06/30 08:55:30;;;;;;;18.10;16.80;;;32.60;87.00;;;;;;5036969;28;20278;-79
2022/06/30 08:58:02;;;;;;;20.45;19.35;;;32.30;85.70;;;;;;5034378;28;20187;-80
2022/06/30 09:00:29;;;;;;;12.10;10.98;;;32.40;86.30;;;;;;5038417;28;20193;-80
2022/06/30 09:02:55;;;;;;;11.43;10.57;;;32.90;81.50;;;;;;5038550;28;20275;-80
2022/06/30 09:05:20;;;;;;;11.88;11.07;;;33.00;81.10;;;;;;5035051;28;20218;-80
2022/06/30 09:07:46;;;;;;;12.75;11.95;;;33.20;82.10;;;;;;5035160;28;20228;-82
2022/06/30 09:10:12;;;;;;;9.65;8.85;;;33.00;81.00;;;;;;5040445;28;20233;-79
2022/06/30 09:12:38;;;;;;;13.05;12.05;;;32.50;82.00;;;;;;5040380;28;20206;-80
2022/06/30 09:15:04;;;;;;;13.15;12.43;;;32.30;81.30;;;;;;5034976;28;20244;-80
2022/06/30 09:17:31;;;;;;;12.88;11.90;;;32.80;79.90;;;;;;5034744;28;20221;-80
2022/06/30 09:20:12;;;;;;;23.88;22.33;;;33.30;76.60;;;;;;5035438;28;20186;-80
2022/06/30 09:22:40;;;;;;;42.25;39.83;;;33.50;75.40;;;;;;5035322;28;20175;-80
2022/06/30 09:25:06;;;;;;;66.97;63.28;;;34.20;74.40;;;;;;5038006;28;20736;-80
2022/06/30 09:27:40;;;;;;;142.68;135.82;;;34.70;72.90;;;;;;5033435;28;20584;-80
2022/06/30 09:30:11;;;;;;;241.80;229.82;;;35.30;72.30;;;;;;5033654;28;20183;-80
2022/06/30 09:32:49;;;;;;;134.68;128.13;;;35.40;67.40;;;;;;5041577;28;20291;-79
2022/06/30 09:35:15;;;;;;;215.98;205.23;;;35.10;65.60;;;;;;5034310;28;20183;-80
2022/06/30 09:37:41;;;;;;;197.43;187.73;;;35.00;68.20;;;;;;5033771;28;20241;-80
2022/06/30 09:40:11;;;;;;;178.80;169.90;;;35.30;67.00;;;;;;5038135;28;20286;-79
2022/06/30 09:42:47;;;;;;;192.68;183.13;;;35.10;66.90;;;;;;5044983;28;20171;-78
2022/06/30 09:45:14;;;;;;;167.05;158.98;;;35.00;67.40;;;;;;5043861;28;20655;-80
2022/06/30 09:47:54;;;;;;;182.30;173.40;;;35.40;65.80;;;;;;5034598;28;20210;-80
2022/06/30 09:50:21;;;;;;;201.32;191.25;;;35.00;64.60;;;;;;5039920;28;20818;-78
2022/06/30 09:53:13;;;;;;;214.52;204.02;;;33.90;67.50;;;;;;5034674;28;20679;-79
2022/06/30 09:55:42;;;;;;;141.27;134.30;;;33.40;68.80;;;;;;5033031;28;20183;-78
2022/06/30 09:58:09;;;;;;;158.00;149.80;;;33.90;69.60;;;;;;5033996;28;20310;-79
2022/06/30 10:00:47;;;;;;;181.95;172.90;;;34.50;67.30;;;;;;5033064;28;20194;-78
2022/06/30 10:03:13;;;;;;;113.63;108.05;;;34.30;68.70;;;;;;5033170;28;20217;-78
2022/06/30 10:05:43;;;;;;;59.42;56.15;;;33.40;71.50;;;;;;5032902;28;20262;-78
2022/06/30 10:08:10;;;;;;;90.93;86.38;;;33.30;72.20;;;;;;5032145;28;20624;-78
2022/06/30 10:10:36;;;;;;;106.35;100.90;;;33.80;69.70;;;;;;5032132;28;20175;-79
2022/06/30 10:13:04;;;;;;;145.57;138.50;;;34.10;69.60;;;;;;5032893;28;20199;-78
2022/06/30 10:15:33;;;;;;;149.65;142.18;;;34.00;68.80;;;;;;5033279;28;20191;-79
2022/06/30 10:18:01;;;;;;;138.85;132.07;;;34.40;66.90;;;;;;5033926;28;20563;-79
2022/06/30 10:20:28;;;;;;;182.27;173.35;;;35.10;65.50;;;;;;5032409;28;20182;-79
2022/06/30 10:22:54;;;;;;;227.57;216.35;;;35.90;64.60;;;;;;5034729;28;20203;-78
2022/06/30 10:25:21;;;;;;;205.15;195.10;;;36.60;63.00;;;;;;5039111;28;20175;-77
2022/06/30 10:27:47;;;;;;;230.25;219.13;;;36.90;61.40;;;;;;5034172;28;20246;-79
2022/06/30 10:30:21;;;;;;;221.13;210.05;;;36.70;60.10;;;;;;5032919;28;20202;-79
2022/06/30 10:32:52;;;;;;;213.63;203.38;;;36.40;61.70;;;;;;5033062;28;20214;-79
2022/06/30 10:35:31;;;;;;;225.35;214.07;;;36.60;61.20;;;;;;5032539;28;20414;-79
2022/06/30 10:38:26;;;;;;;273.30;259.75;;;36.40;61.60;;;;;;5032509;28;20214;-79
2022/06/30 10:41:12;;;;;;;257.45;244.25;;;36.30;58.80;;;;;;5031869;28;20194;-79
2022/06/30 10:44:02;;;;;;;291.58;276.90;;;36.50;59.80;;;;;;5031966;28;20195;-79
2022/06/30 10:46:29;;;;;;;262.83;249.63;;;36.80;58.00;;;;;;5032952;28;20218;-79
2022/06/30 10:48:55;;;;;;;221.65;210.50;;;36.90;56.90;;;;;;5031052;28;20179;-79
2022/06/30 10:51:22;;;;;;;146.77;139.57;;;37.60;55.80;;;;;;5032208;28;20183;-79
2022/06/30 10:53:54;;;;;;;164.80;156.63;;;37.90;54.80;;;;;;5039825;28;20195;-78
2022/06/30 10:56:22;;;;;;;176.70;167.98;;;37.60;54.50;;;;;;5032888;28;20305;-79
2022/06/30 10:59:05;;;;;;;171.40;162.77;;;37.20;55.30;;;;;;5031169;28;20172;-79
2022/06/30 11:01:31;;;;;;;195.20;185.18;;;37.30;55.00;;;;;;5032343;28;20186;-79
2022/06/30 11:03:58;;;;;;;194.98;185.27;;;37.10;55.00;;;;;;5049639;23;20238;-75
2022/06/30 11:06:26;;;;;;;196.73;186.65;;;36.80;55.90;;;;;;5012159;28;20271;-77
2022/06/30 11:08:57;;;;;;;227.95;216.50;;;36.70;54.80;;;;;;5013482;28;20183;-77
2022/06/30 11:11:24;;;;;;;182.93;173.77;;;36.90;55.80;;;;;;5013889;28;20191;-77
2022/06/30 11:13:50;;;;;;;170.63;161.95;;;37.10;54.70;;;;;;5019619;28;20620;-77
2022/06/30 11:16:18;;;;;;;148.10;140.68;;;37.40;54.60;;;;;;5034178;28;20215;-77
2022/06/30 11:18:46;;;;;;;120.90;115.10;;;37.80;53.80;;;;;;5033715;28;20258;-77
2022/06/30 11:21:13;;;;;;;106.72;101.20;;;38.00;53.00;;;;;;5034370;28;20190;-76
2022/06/30 11:23:47;;;;;;;117.93;111.97;;;37.60;53.20;;;;;;5034622;28;20290;-77
2022/06/30 11:29:01;;;;;;;40.72;38.65;;;37.90;51.10;;;;;;5034720;28;20186;-77
2022/06/30 11:31:35;;;;;;;22.95;21.60;;;38.10;51.00;;;;;;5035240;28;20551;-77
2022/06/30 11:34:02;;;;;;;15.32;14.48;;;38.90;49.80;;;;;;5034024;28;20215;-77
2022/06/30 11:36:28;;;;;;;11.43;10.73;;;38.10;50.50;;;;;;5036127;28;20382;-77
2022/06/30 11:39:01;;;;;;;14.52;13.48;;;38.60;49.90;;;;;;5035377;28;20262;-78
2022/06/30 11:44:15;;;;;;;10.75;10.20;;;38.20;47.60;;;;;;5035068;28;20203;-77
2022/06/30 11:46:52;;;;;;;11.25;10.57;;;38.50;48.60;;;;;;5032384;28;20175;-77
2022/06/30 11:49:19;;;;;;;25.77;24.13;;;38.70;49.30;;;;;;5034225;28;20571;-77
2022/06/30 11:51:45;;;;;;;32.97;31.15;;;38.40;49.80;;;;;;5032686;28;20636;-77
2022/06/30 11:54:12;;;;;;;45.90;43.53;;;38.10;49.70;;;;;;5033796;28;20202;-77
2022/06/30 11:56:52;;;;;;;60.13;56.97;;;38.10;50.50;;;;;;5034118;28;20233;-77
2022/06/30 11:59:19;;;;;;;24.92;23.52;;;38.40;52.00;;;;;;5034235;28;20175;-77
2022/06/30 12:02:05;;;;;;;12.45;11.52;;;39.30;47.70;;;;;;5034118;28;20183;-77
2022/06/30 12:04:33;;;;;;;8.15;7.35;;;39.70;46.40;;;;;;5032119;28;20214;-76
2022/06/30 12:07:05;;;;;;;5.70;5.25;;;40.50;45.50;;;;;;5032866;28;20183;-77
2022/06/30 12:09:32;;;;;;;5.30;4.53;;;40.30;45.60;;;;;;5033607;28;20763;-76
2022/06/30 12:11:59;;;;;;;6.78;6.22;;;39.90;46.00;;;;;;5034987;28;20182;-77
2022/06/30 12:14:26;;;;;;;7.63;7.07;;;40.90;44.20;;;;;;5032896;28;20214;-77
2022/06/30 12:16:55;;;;;;;12.75;11.80;;;40.60;45.00;;;;;;5032246;28;20210;-77
2022/06/30 12:19:23;;;;;;;16.65;15.48;;;39.30;46.30;;;;;;5033685;28;20556;-77
2022/06/30 12:21:53;;;;;;;33.00;31.15;;;39.00;46.60;;;;;;5033171;28;20647;-77
2022/06/30 12:24:21;;;;;;;24.80;23.17;;;38.60;46.00;;;;;;5033593;28;20199;-76
2022/06/30 12:26:52;;;;;;;25.40;23.70;;;38.30;45.70;;;;;;5032421;28;20644;-77
2022/06/30 12:29:20;;;;;;;21.50;20.27;;;38.80;45.60;;;;;;5031850;28;20233;-77
2022/06/30 12:32:08;;;;;;;22.10;20.90;;;38.90;45.50;;;;;;5031711;28;20270;-77
2022/06/30 12:34:51;;;;;;;11.38;10.68;;;39.00;46.20;;;;;;5032783;28;20207;-77
2022/06/30 12:37:29;;;;;;;10.73;9.75;;;39.50;45.00;;;;;;5030963;28;20716;-77
2022/06/30 12:39:57;;;;;;;6.70;6.15;;;39.30;44.40;;;;;;5033029;28;20174;-77
2022/06/30 12:42:24;;;;;;;8.07;7.28;;;39.60;45.20;;;;;;5032167;28;20186;-77
2022/06/30 12:44:50;;;;;;;9.18;8.45;;;40.00;44.00;;;;;;5032721;28;20246;-77
2022/06/30 12:47:15;;;;;;;6.35;5.80;;;39.80;43.90;;;;;;5032052;28;20209;-76
2022/06/30 12:49:42;;;;;;;5.90;5.22;;;39.30;44.00;;;;;;5032607;28;20179;-76
2022/06/30 12:52:19;;;;;;;6.05;5.50;;;39.30;43.20;;;;;;5031411;28;20179;-77